Time;durP1;ratioP1;P1;durP2;ratioP2;P2;SDS_P1;SDS_P2;PMS_P1;PMS_P2;Temp;Humidity;BMP_temperature;BMP_pressure;BME280_temperature;BME280_humidity;BME280_pressure;Samples;Min_cycle;Max_cycle;Signal;HPM_P1;HPM_P2
2021/12/20 00:00:51;;;;;;;0.87;0.20;;;;;;;1.21;83.43;97825.88;1707744;81;21042;-56
2021/12/20 00:03:17;;;;;;;0.20;0.20;;;;;;;1.23;83.51;97835.95;1708095;81;20914;-56
2021/12/20 00:05:45;;;;;;;1.10;0.20;;;;;;;1.22;83.39;97838.20;1714790;81;21399;-59
2021/12/20 00:08:12;;;;;;;0.20;0.10;;;;;;;1.22;83.42;97835.55;1710654;81;21415;-57
2021/12/20 00:12:15;;;;;;;0.50;0.20;;;;;;;1.24;83.41;97840.80;1788139;78;27407;-54
2021/12/20 00:14:43;;;;;;;0.40;0.20;;;;;;;1.16;83.36;97841.12;1759987;79;21029;-57
2021/12/20 00:17:09;;;;;;;0.60;0.20;;;;;;;1.16;83.36;97845.09;1759458;80;22457;-55
2021/12/20 00:19:37;;;;;;;0.57;0.30;;;;;;;1.14;83.40;97841.17;1760013;79;21052;-58
2021/12/20 00:22:04;;;;;;;2.93;0.20;;;;;;;1.16;83.44;97846.42;1764031;79;21531;-54
2021/12/20 00:24:30;;;;;;;0.70;0.20;;;;;;;1.19;83.41;97848.09;1766032;79;21727;-58
2021/12/20 00:26:57;;;;;;;0.47;0.13;;;;;;;1.23;83.42;97856.30;1762950;79;21092;-58
2021/12/20 00:29:23;;;;;;;0.47;0.20;;;;;;;1.26;83.44;97856.19;1764186;79;21221;-55
2021/12/20 00:31:49;;;;;;;0.50;0.20;;;;;;;1.27;83.35;97858.77;1759876;79;21160;-54
2021/12/20 00:34:16;;;;;;;0.30;0.20;;;;;;;1.26;83.30;97850.42;1706562;82;21060;-55
2021/12/20 00:36:42;;;;;;;0.30;0.20;;;;;;;1.26;83.26;97850.42;1709808;82;21322;-57
2021/12/20 00:41:54;;;;;;;;;;;;;;;1.28;83.26;97866.23;1707399;82;21148;-58
2021/12/20 00:44:20;;;;;;;0.53;0.20;;;;;;;1.28;83.24;97869.75;1703993;83;21588;-57
2021/12/20 00:46:46;;;;;;;0.53;0.20;;;;;;;1.29;83.23;97868.83;1701495;83;22540;-54
2021/12/20 00:49:12;;;;;;;0.20;0.10;;;;;;;1.28;83.12;97862.26;1705105;83;21069;-54
2021/12/20 00:51:39;;;;;;;2.00;0.20;;;;;;;1.27;83.16;97869.38;1701868;83;21069;-58
2021/12/20 00:54:05;;;;;;;0.40;0.17;;;;;;;1.26;83.06;97870.30;1702560;83;21542;-57
2021/12/20 00:56:32;;;;;;;0.27;0.10;;;;;;;1.23;82.97;97871.73;1696652;83;21085;-54
2021/12/20 00:58:58;;;;;;;0.13;0.10;;;;;;;1.20;82.90;97870.52;1688946;83;21065;-57
2021/12/20 01:01:24;;;;;;;0.40;0.20;;;;;;;1.19;82.93;97872.80;1689862;83;21152;-56
2021/12/20 01:03:51;;;;;;;0.63;0.10;;;;;;;1.18;82.91;97871.53;1690118;83;21160;-58
2021/12/20 01:06:17;;;;;;;0.40;0.10;;;;;;;1.17;82.93;97869.34;1690026;83;21786;-57
2021/12/20 01:08:44;;;;;;;1.90;0.20;;;;;;;1.18;82.94;97870.20;1688791;83;21298;-54
2021/12/20 01:11:13;;;;;;;0.30;0.13;;;;;;;1.20;82.96;97866.55;1679365;83;20951;-54
2021/12/20 01:13:41;;;;;;;0.50;0.20;;;;;;;1.21;82.95;97869.61;1672323;83;21136;-56
2021/12/20 01:16:08;;;;;;;0.97;0.27;;;;;;;1.23;82.94;97865.57;1670812;83;21703;-54
2021/12/20 01:18:34;;;;;;;1.90;0.20;;;;;;;1.22;82.87;97863.84;1675567;83;22084;-54
2021/12/20 01:21:01;;;;;;;0.90;0.30;;;;;;;1.23;82.88;97869.55;1671458;83;20998;-58
2021/12/20 01:23:27;;;;;;;0.90;0.30;;;;;;;1.22;82.77;97879.28;1672501;83;22575;-57
2021/12/20 01:25:55;;;;;;;0.33;0.20;;;;;;;1.20;82.76;97878.48;1732635;80;21971;-54
2021/12/20 01:28:22;;;;;;;0.87;0.30;;;;;;;1.20;82.80;97875.83;1732828;80;21126;-54
2021/12/20 01:30:48;;;;;;;0.70;0.30;;;;;;;1.19;82.76;97879.43;1731241;80;21140;-56
2021/12/20 01:33:15;;;;;;;1.80;0.30;;;;;;;1.19;82.72;97878.56;1730185;80;21103;-56
2021/12/20 01:35:42;;;;;;;0.70;0.30;;;;;;;1.20;82.73;97879.80;1733992;80;21050;-53
2021/12/20 01:38:08;;;;;;;1.00;0.30;;;;;;;1.19;82.69;97876.78;1735454;80;21075;-58
2021/12/20 01:40:36;;;;;;;0.53;0.20;;;;;;;1.16;82.60;97875.56;1731760;80;21101;-54
2021/12/20 01:43:02;;;;;;;0.30;0.20;;;;;;;1.13;82.52;97890.25;1734101;80;21114;-56
2021/12/20 01:45:29;;;;;;;0.27;0.20;;;;;;;1.10;82.52;97878.02;1738081;80;21376;-59
2021/12/20 01:48:07;;;;;;;0.50;0.20;;;;;;;1.10;82.53;97879.34;1735157;80;20995;-56
2021/12/20 01:50:46;;;;;;;0.37;0.10;;;;;;;1.11;82.49;97884.14;1733531;80;21201;-59
2021/12/20 01:53:03;;;;;;;0.93;0.20;;;;;;;1.09;82.51;97877.61;1734259;80;21189;-55
2021/12/20 01:55:29;;;;;;;0.20;0.13;;;;;;;1.08;82.40;97875.02;1729256;80;21098;-57
2021/12/20 01:57:55;;;;;;;0.33;0.10;;;;;;;1.07;82.45;97870.63;1733317;80;21688;-55
2021/12/20 02:00:25;;;;;;;1.27;0.20;;;;;;;1.04;82.44;97868.09;1733912;80;21133;-56
2021/12/20 02:02:58;;;;;;;0.53;0.13;;;;;;;1.03;82.42;97866.37;1734810;80;20892;-55
2021/12/20 02:05:25;;;;;;;0.43;0.17;;;;;;;1.01;82.38;97878.38;1730450;80;21450;-55
2021/12/20 02:07:58;;;;;;;0.50;0.10;;;;;;;0.99;82.41;97878.03;1732948;80;21165;-56
2021/12/20 02:10:19;;;;;;;0.90;0.20;;;;;;;0.97;82.45;97872.78;1733516;80;21106;-54
2021/12/20 02:12:47;;;;;;;0.40;0.20;;;;;;;0.99;82.53;97872.27;1715809;81;21431;-58
2021/12/20 02:15:14;;;;;;;0.40;0.10;;;;;;;1.01;82.51;97877.05;1714624;81;21125;-58
2021/12/20 02:17:40;;;;;;;0.50;0.20;;;;;;;1.00;82.53;97881.08;1715175;81;21602;-58
2021/12/20 02:20:08;;;;;;;0.23;0.20;;;;;;;1.00;82.49;97880.63;1708254;81;21590;-57
2021/12/20 02:22:38;;;;;;;1.90;0.10;;;;;;;1.01;82.50;97882.81;1709695;81;21057;-56
2021/12/20 02:25:08;;;;;;;0.40;0.17;;;;;;;1.00;82.49;97884.59;1710802;81;22172;-56
2021/12/20 02:27:34;;;;;;;0.40;0.20;;;;;;;1.01;82.49;97885.46;1711488;81;21048;-58
2021/12/20 02:30:12;;;;;;;1.23;0.13;;;;;;;1.00;82.49;97882.41;1715842;81;20902;-57
2021/12/20 02:38:21;;;;;;;0.60;0.20;;;;;;;1.01;82.53;97893.41;1714702;81;21045;-58
2021/12/20 02:40:57;;;;;;;0.40;0.10;;;;;;;1.00;82.51;97897.84;1711526;81;21069;-58
2021/12/20 02:43:23;;;;;;;0.27;0.10;;;;;;;0.98;82.50;97897.03;1710841;81;22336;-58
2021/12/20 02:45:54;;;;;;;2.17;0.10;;;;;;;0.98;82.46;97898.81;1712559;81;22370;-58
2021/12/20 02:48:18;;;;;;;1.30;0.20;;;;;;;0.98;82.51;97893.52;1709995;81;21104;-56
2021/12/20 02:50:44;;;;;;;1.70;0.20;;;;;;;0.97;82.51;97899.28;1708685;81;21084;-55
2021/12/20 02:53:11;;;;;;;0.70;0.10;;;;;;;0.99;82.53;97899.22;1716320;81;22350;-58
2021/12/20 02:55:38;;;;;;;0.40;0.20;;;;;;;0.99;82.51;97893.92;1717456;81;21502;-56
2021/12/20 02:58:04;;;;;;;1.73;0.20;;;;;;;0.99;82.49;97893.46;1708725;81;21505;-55
2021/12/20 03:00:31;;;;;;;0.27;0.10;;;;;;;1.00;82.48;97897.84;1713875;81;21109;-59
2021/12/20 03:02:58;;;;;;;0.20;0.10;;;;;;;1.00;82.42;97895.19;1719440;81;20954;-58
2021/12/20 03:05:24;;;;;;;0.10;0.10;;;;;;;1.01;82.33;97900.03;1718931;81;20998;-58
2021/12/20 03:07:53;;;;;;;0.40;0.10;;;;;;;1.01;82.26;97892.95;1718761;81;20957;-59
2021/12/20 03:10:23;;;;;;;1.13;0.13;;;;;;;1.01;82.29;97898.70;1720419;81;20934;-59
2021/12/20 03:12:50;;;;;;;0.20;0.10;;;;;;;1.02;82.27;97909.71;1721770;81;20957;-58
2021/12/20 03:15:21;;;;;;;0.20;0.10;;;;;;;1.03;82.27;97910.08;1724067;81;20942;-58
2021/12/20 03:17:47;;;;;;;0.50;0.10;;;;;;;1.03;82.28;97900.34;1721135;81;21373;-58
2021/12/20 03:20:14;;;;;;;0.10;0.10;;;;;;;1.04;82.26;97902.08;1720160;81;21014;-59
2021/12/20 03:22:42;;;;;;;0.73;0.10;;;;;;;1.04;82.20;97913.14;1720351;81;21030;-59
2021/12/20 03:25:10;;;;;;;1.20;0.10;;;;;;;1.05;82.16;97906.92;1722055;81;20903;-58
2021/12/20 03:27:37;;;;;;;0.40;0.20;;;;;;;1.04;82.17;97903.86;1716747;81;20954;-59
2021/12/20 03:30:05;;;;;;;0.63;0.20;;;;;;;1.07;82.18;97906.41;1722944;81;20962;-58
2021/12/20 03:32:33;;;;;;;0.50;0.13;;;;;;;1.08;82.11;97900.19;1719703;81;20929;-58
2021/12/20 03:35:00;;;;;;;0.50;0.10;;;;;;;1.10;82.08;97904.97;1720606;81;21098;-58
2021/12/20 03:37:26;;;;;;;0.20;0.10;;;;;;;1.12;82.07;97905.75;1724116;81;20962;-59
2021/12/20 03:39:52;;;;;;;0.80;0.13;;;;;;;1.10;81.99;97909.81;1719763;81;20965;-59
2021/12/20 03:42:19;;;;;;;0.40;0.20;;;;;;;1.11;81.92;97902.69;1722567;81;20977;-59
2021/12/20 03:44:46;;;;;;;1.10;0.10;;;;;;;1.11;81.87;97905.34;1720269;81;21307;-58
2021/12/20 03:47:13;;;;;;;1.10;0.10;;;;;;;1.11;81.82;97910.64;1721653;81;22319;-58
2021/12/20 03:49:41;;;;;;;0.30;0.10;;;;;;;1.09;81.88;97900.59;1718464;81;20922;-59
2021/12/20 03:52:08;;;;;;;0.47;0.13;;;;;;;1.08;81.81;97907.67;1721868;81;20934;-59
2021/12/20 03:54:35;;;;;;;0.23;0.10;;;;;;;1.09;81.79;97909.86;1721384;81;21570;-58
2021/12/20 03:57:02;;;;;;;0.20;0.10;;;;;;;1.09;81.71;97914.70;1720597;81;21317;-59
2021/12/20 03:59:29;;;;;;;0.20;0.10;;;;;;;1.07;81.59;97916.55;1715415;81;21913;-58
2021/12/20 04:01:56;;;;;;;2.73;0.20;;;;;;;1.04;81.50;97919.30;1721961;81;20930;-59
2021/12/20 04:04:24;;;;;;;0.40;0.20;;;;;;;1.02;81.53;97922.95;1714417;81;21048;-59
2021/12/20 04:06:51;;;;;;;0.43;0.17;;;;;;;0.97;81.52;97919.61;1716519;81;21171;-59
2021/12/20 04:09:17;;;;;;;0.30;0.10;;;;;;;0.95;81.61;97920.98;1714560;81;21368;-58
2021/12/20 04:11:43;;;;;;;0.20;0.13;;;;;;;0.96;81.67;97917.88;1717250;81;22876;-59
2021/12/20 04:14:10;;;;;;;0.50;0.20;;;;;;;0.96;81.70;97924.04;1713403;81;21363;-59
2021/12/20 04:16:36;;;;;;;0.50;0.20;;;;;;;0.97;81.74;97930.20;1719161;81;21713;-59
2021/12/20 04:19:03;;;;;;;0.70;0.17;;;;;;;0.96;81.73;97924.50;1716833;81;21087;-58
2021/12/20 04:21:30;;;;;;;0.40;0.20;;;;;;;0.96;81.68;97933.77;1719672;81;21111;-59
2021/12/20 04:23:57;;;;;;;0.93;0.20;;;;;;;0.92;81.69;97936.15;1719361;81;21114;-58
2021/12/20 04:26:23;;;;;;;0.20;0.10;;;;;;;0.89;81.76;97939.77;1718280;81;21100;-58
2021/12/20 04:28:50;;;;;;;0.47;0.10;;;;;;;0.89;81.85;97946.86;1715098;81;21040;-59
2021/12/20 04:31:16;;;;;;;0.40;0.20;;;;;;;0.88;81.94;97944.66;1716077;81;21080;-59
2021/12/20 04:33:42;;;;;;;0.40;0.20;;;;;;;0.88;81.99;97939.36;1718495;81;21454;-59
2021/12/20 04:36:09;;;;;;;0.20;0.10;;;;;;;0.89;81.99;97946.86;1716807;81;21527;-59
2021/12/20 04:38:36;;;;;;;0.60;0.10;;;;;;;0.90;82.11;97940.64;1714843;81;21509;-58
2021/12/20 04:41:02;;;;;;;0.30;0.10;;;;;;;0.91;82.10;97941.05;1718404;81;21555;-59
2021/12/20 04:43:28;;;;;;;0.20;0.10;;;;;;;0.90;81.93;97943.28;1713180;81;21597;-58
2021/12/20 04:45:55;;;;;;;0.63;0.20;;;;;;;0.89;81.87;97948.17;1714009;81;21132;-58
2021/12/20 04:48:21;;;;;;;0.67;0.20;;;;;;;0.88;81.84;97950.42;1715432;81;21131;-58
2021/12/20 04:50:48;;;;;;;0.40;0.10;;;;;;;0.88;81.90;97955.72;1714751;81;21152;-59
2021/12/20 04:53:14;;;;;;;0.87;0.10;;;;;;;0.89;81.92;97954.80;1713510;81;21096;-59
2021/12/20 04:55:40;;;;;;;0.30;0.10;;;;;;;0.91;81.93;97962.23;1682223;83;21124;-59
2021/12/20 04:58:07;;;;;;;0.20;0.10;;;;;;;0.93;82.00;97955.10;1683243;83;21081;-59
2021/12/20 05:00:35;;;;;;;0.40;0.10;;;;;;;0.93;81.89;97951.13;1719323;81;21133;-60
2021/12/20 05:03:01;;;;;;;0.57;0.10;;;;;;;0.91;81.85;97956.48;1713946;81;21095;-59
2021/12/20 05:05:28;;;;;;;0.40;0.20;;;;;;;0.87;81.84;97958.83;1716685;81;21121;-59
2021/12/20 05:07:55;;;;;;;0.83;0.10;;;;;;;0.85;81.93;97960.66;1715695;81;21351;-59
2021/12/20 05:10:29;;;;;;;0.10;0.10;;;;;;;0.85;81.93;97961.98;1650043;84;21081;-59
2021/12/20 05:12:56;;;;;;;0.50;0.20;;;;;;;0.85;81.97;97965.13;1721913;80;21635;-58
2021/12/20 05:15:23;;;;;;;0.67;0.20;;;;;;;0.87;82.00;97971.20;1733169;80;21490;-59
2021/12/20 05:17:50;;;;;;;1.67;0.20;;;;;;;0.86;81.91;97972.98;1740225;80;21007;-59
2021/12/20 05:20:16;;;;;;;0.77;0.10;;;;;;;0.82;81.89;97969.20;1734489;80;20952;-58
2021/12/20 05:22:43;;;;;;;0.20;0.10;;;;;;;0.78;81.99;97967.11;1736116;80;21067;-59
2021/12/20 05:25:11;;;;;;;0.20;0.10;;;;;;;0.75;81.96;97970.77;1733077;80;22544;-59
2021/12/20 05:27:38;;;;;;;0.30;0.10;;;;;;;0.74;81.98;97973.01;1737171;80;21450;-58
2021/12/20 05:30:06;;;;;;;0.20;0.10;;;;;;;0.75;81.94;97979.17;1736192;80;21555;-58
2021/12/20 05:32:33;;;;;;;0.30;0.10;;;;;;;0.74;82.01;97978.30;1736484;80;20974;-58
2021/12/20 05:34:59;;;;;;;0.30;0.20;;;;;;;0.75;82.01;97974.73;1736301;80;21063;-57
2021/12/20 05:37:25;;;;;;;0.33;0.20;;;;;;;0.78;82.10;97977.70;1731082;81;21199;-57
2021/12/20 05:39:51;;;;;;;0.70;0.30;;;;;;;0.78;82.07;97979.03;1732447;80;21088;-58
2021/12/20 05:42:18;;;;;;;0.40;0.20;;;;;;;0.79;82.14;97982.55;1730389;80;21142;-58
2021/12/20 05:44:44;;;;;;;1.47;0.57;;;;;;;0.79;82.10;97995.33;1733769;80;21094;-58
2021/12/20 05:47:10;;;;;;;2.23;0.50;;;;;;;0.78;81.95;97992.27;1736374;80;21212;-58
2021/12/20 05:49:37;;;;;;;3.43;0.70;;;;;;;0.75;82.07;97994.60;1735273;80;21442;-58
2021/12/20 05:52:05;;;;;;;1.10;0.50;;;;;;;0.77;82.15;97992.36;1733555;80;21043;-58
2021/12/20 05:54:33;;;;;;;0.87;0.40;;;;;;;0.80;82.16;97994.88;1731405;80;21094;-58
2021/12/20 05:56:59;;;;;;;1.90;0.40;;;;;;;0.83;82.13;97996.96;1735737;80;21051;-58
2021/12/20 05:59:26;;;;;;;0.60;0.37;;;;;;;0.84;82.08;98000.02;1733702;80;21070;-58
2021/12/20 06:01:52;;;;;;;0.60;0.30;;;;;;;0.83;81.96;98003.58;1733673;80;22435;-59
2021/12/20 06:04:18;;;;;;;0.40;0.30;;;;;;;0.83;81.93;98004.91;1736108;80;21699;-58
2021/12/20 06:06:46;;;;;;;1.70;0.30;;;;;;;0.82;81.98;98008.94;1735003;80;20936;-58
2021/12/20 06:09:13;;;;;;;2.90;0.30;;;;;;;0.82;81.99;98008.94;1735666;80;21503;-58
2021/12/20 06:11:39;;;;;;;2.40;0.20;;;;;;;0.81;81.92;98008.52;1741691;80;20909;-58
2021/12/20 06:14:05;;;;;;;2.20;0.20;;;;;;;0.81;81.99;98008.06;1741866;80;21339;-58
2021/12/20 06:16:33;;;;;;;0.93;0.30;;;;;;;0.84;82.02;98013.27;1736654;80;20944;-57
2021/12/20 06:19:00;;;;;;;0.80;0.30;;;;;;;0.85;82.08;98012.31;1740430;80;20904;-58
2021/12/20 06:21:26;;;;;;;2.63;0.40;;;;;;;0.87;82.09;98014.91;1740268;80;21426;-58
2021/12/20 06:23:52;;;;;;;1.43;0.40;;;;;;;0.89;82.11;98021.89;1735945;80;21127;-58
2021/12/20 06:26:23;;;;;;;1.23;0.40;;;;;;;0.90;82.02;98013.02;1736552;80;21137;-58
2021/12/20 06:28:47;;;;;;;0.60;0.30;;;;;;;0.90;81.96;98020.11;1735478;80;21043;-59
2021/12/20 06:31:14;;;;;;;0.60;0.30;;;;;;;0.91;82.01;98028.00;1737194;80;21405;-59
2021/12/20 06:33:40;;;;;;;0.50;0.30;;;;;;;0.92;81.98;98025.77;1742705;80;21473;-57
2021/12/20 06:36:06;;;;;;;0.90;0.30;;;;;;;0.94;82.02;98029.19;1739014;80;21000;-58
2021/12/20 06:38:34;;;;;;;3.50;0.40;;;;;;;0.94;81.95;98036.27;1736646;80;21211;-58
2021/12/20 06:41:01;;;;;;;3.17;0.40;;;;;;;0.94;81.89;98036.27;1737551;80;21134;-58
2021/12/20 06:43:30;;;;;;;1.10;0.30;;;;;;;0.93;81.87;98035.90;1741723;80;21074;-59
2021/12/20 06:45:56;;;;;;;0.53;0.30;;;;;;;0.92;81.86;98040.79;1733534;80;21126;-59
2021/12/20 06:48:22;;;;;;;0.43;0.20;;;;;;;0.89;81.79;98041.75;1733246;80;21381;-59
2021/12/20 06:50:48;;;;;;;0.57;0.30;;;;;;;0.87;81.83;98045.38;1734718;80;21127;-59
2021/12/20 06:53:14;;;;;;;1.10;0.37;;;;;;;0.87;81.86;98048.89;1736754;80;21505;-58
2021/12/20 06:55:41;;;;;;;1.07;0.40;;;;;;;0.89;81.84;98051.03;1736059;80;21103;-59
2021/12/20 06:58:07;;;;;;;0.70;0.43;;;;;;;0.90;81.92;98048.78;1735992;80;21105;-59
2021/12/20 07:00:34;;;;;;;1.00;0.50;;;;;;;0.94;81.97;98046.41;1735583;80;21423;-59
2021/12/20 07:03:02;;;;;;;1.53;0.50;;;;;;;0.98;81.91;98046.72;1735953;80;22674;-59
2021/12/20 07:05:28;;;;;;;1.40;0.50;;;;;;;0.99;81.82;98050.23;1731777;80;21360;-58
2021/12/20 07:07:54;;;;;;;1.47;0.40;;;;;;;0.99;81.85;98048.91;1735848;80;21571;-58
2021/12/20 07:10:21;;;;;;;0.80;0.40;;;;;;;1.00;81.90;98052.83;1737704;80;22318;-59
2021/12/20 07:12:48;;;;;;;1.13;0.50;;;;;;;1.01;81.87;98057.22;1733813;80;22207;-59
2021/12/20 07:15:16;;;;;;;1.43;0.50;;;;;;;1.03;81.86;98055.80;1729282;80;22110;-59
2021/12/20 07:17:42;;;;;;;2.23;0.53;;;;;;;1.02;81.80;98052.29;1735847;80;21401;-58
2021/12/20 07:20:10;;;;;;;1.20;0.40;;;;;;;1.04;81.86;98056.22;1740005;81;21526;-58
2021/12/20 07:22:37;;;;;;;1.00;0.40;;;;;;;1.05;81.87;98057.48;1741419;80;20901;-58
2021/12/20 07:25:04;;;;;;;1.27;0.43;;;;;;;1.08;81.86;98062.69;1736920;80;21142;-58
2021/12/20 07:27:30;;;;;;;1.00;0.40;;;;;;;1.08;81.76;98062.69;1733315;80;21135;-59
2021/12/20 07:29:57;;;;;;;0.77;0.40;;;;;;;1.07;81.72;98062.28;1733895;80;21106;-58
2021/12/20 07:32:24;;;;;;;0.97;0.40;;;;;;;1.08;81.72;98064.47;1740648;80;21059;-58
2021/12/20 07:34:50;;;;;;;0.50;0.33;;;;;;;1.10;81.73;98072.77;1738982;81;21085;-58
2021/12/20 07:37:17;;;;;;;0.70;0.30;;;;;;;1.15;81.67;98073.91;1729198;80;21074;-59
2021/12/20 07:39:43;;;;;;;0.73;0.40;;;;;;;1.18;81.59;98073.81;1735055;81;21145;-59
2021/12/20 07:42:10;;;;;;;1.07;0.50;;;;;;;1.19;81.51;98080.84;1737657;80;21074;-59
2021/12/20 07:44:36;;;;;;;1.40;0.40;;;;;;;1.20;81.50;98083.87;1737930;80;21152;-58
2021/12/20 07:47:03;;;;;;;0.80;0.40;;;;;;;1.20;81.35;98087.84;1734573;80;21079;-59
2021/12/20 07:49:30;;;;;;;0.90;0.50;;;;;;;1.19;81.30;98091.91;1737330;80;21103;-58
2021/12/20 07:51:56;;;;;;;0.80;0.43;;;;;;;1.18;81.19;98093.69;1736101;80;21117;-58
2021/12/20 07:54:23;;;;;;;1.50;0.57;;;;;;;1.20;81.20;98094.93;1733401;80;21083;-60
2021/12/20 07:56:49;;;;;;;2.17;0.60;;;;;;;1.21;81.07;98109.45;1734926;80;21095;-59
2021/12/20 07:59:16;;;;;;;1.93;0.57;;;;;;;1.23;81.11;98108.08;1733908;80;21101;-58
2021/12/20 08:01:42;;;;;;;1.30;0.70;;;;;;;1.24;81.05;98108.48;1735245;80;21071;-58
2021/12/20 08:04:27;;;;;;;2.10;0.60;;;;;;;1.26;80.98;98110.63;1734237;81;21561;-59
2021/12/20 08:06:53;;;;;;;1.00;0.60;;;;;;;1.29;80.83;98111.82;1735289;80;21618;-58
2021/12/20 08:09:38;;;;;;;1.30;0.50;;;;;;;1.30;80.81;98111.77;1734931;80;21133;-58
2021/12/20 08:12:06;;;;;;;0.57;0.37;;;;;;;1.33;80.77;98111.67;1734922;80;21079;-60
2021/12/20 08:14:50;;;;;;;0.90;0.50;;;;;;;1.37;80.63;98110.61;1738983;80;21046;-60
2021/12/20 08:17:16;;;;;;;1.67;0.47;;;;;;;1.39;80.55;98112.75;1736439;80;21104;-58
2021/12/20 08:19:43;;;;;;;0.70;0.50;;;;;;;1.41;80.45;98108.27;1732705;80;21131;-58
2021/12/20 08:22:09;;;;;;;2.20;0.40;;;;;;;1.41;80.23;98106.94;1736572;80;21145;-59
2021/12/20 08:24:36;;;;;;;0.70;0.40;;;;;;;1.43;80.23;98114.84;1731680;80;21048;-59
2021/12/20 08:27:02;;;;;;;0.67;0.40;;;;;;;1.45;80.26;98119.60;1739076;81;21155;-58
2021/12/20 08:29:29;;;;;;;1.80;0.30;;;;;;;1.49;80.17;98115.92;1734927;80;21102;-59
2021/12/20 08:32:01;;;;;;;1.00;0.83;;;;;;;1.47;80.00;98115.11;1735918;80;21151;-58
2021/12/20 08:34:25;;;;;;;0.70;0.40;;;;;;;1.47;79.97;98117.30;1735564;80;21413;-58
2021/12/20 08:36:51;;;;;;;0.40;0.30;;;;;;;1.46;79.83;98117.36;1735547;80;21708;-58
2021/12/20 08:39:19;;;;;;;1.30;0.50;;;;;;;1.40;79.75;98119.79;1737058;81;21130;-57
2021/12/20 08:42:04;;;;;;;0.50;0.40;;;;;;;1.38;79.80;98113.67;1740447;81;21416;-57
2021/12/20 08:44:43;;;;;;;0.50;0.30;;;;;;;1.37;79.78;98122.55;1735703;80;21114;-58
2021/12/20 08:47:27;;;;;;;0.53;0.40;;;;;;;1.38;79.80;98118.11;1734481;80;21063;-57
2021/12/20 08:49:54;;;;;;;0.70;0.47;;;;;;;1.38;79.89;98122.95;1734708;80;21378;-58
2021/12/20 08:52:20;;;;;;;1.00;0.30;;;;;;;1.40;79.98;98129.06;1732441;81;21063;-59
2021/12/20 08:55:05;;;;;;;1.47;0.50;;;;;;;1.43;79.98;98126.31;1735889;81;21138;-59
2021/12/20 08:57:32;;;;;;;0.77;0.40;;;;;;;1.45;79.87;98123.12;1736504;81;21099;-59
2021/12/20 08:59:59;;;;;;;0.57;0.40;;;;;;;1.43;79.81;98126.31;1735909;80;20920;-58
2021/12/20 09:02:26;;;;;;;0.60;0.50;;;;;;;1.40;79.77;98129.06;1737135;81;21070;-59
2021/12/20 09:04:52;;;;;;;0.57;0.30;;;;;;;1.38;79.79;98122.95;1738207;81;21343;-60
2021/12/20 09:07:40;;;;;;;0.65;0.40;;;;;;;1.39;79.87;98127.33;1739147;80;21084;-60
2021/12/20 09:10:10;;;;;;;0.63;0.40;;;;;;;1.43;79.88;98122.80;1729834;81;21066;-59
2021/12/20 09:12:39;;;;;;;0.80;0.40;;;;;;;1.46;79.82;98129.29;1738580;80;21106;-59
2021/12/20 09:15:06;;;;;;;0.80;0.50;;;;;;;1.49;79.69;98129.19;1752429;80;20913;-60
2021/12/20 09:17:34;;;;;;;3.23;0.40;;;;;;;1.49;79.54;98130.05;1752979;80;20944;-60
2021/12/20 09:20:00;;;;;;;0.67;0.40;;;;;;;1.51;79.43;98136.63;1749798;80;21531;-59
2021/12/20 09:22:29;;;;;;;1.00;0.50;;;;;;;1.53;79.41;98128.16;1755807;80;21394;-58
2021/12/20 09:24:55;;;;;;;0.60;0.40;;;;;;;1.57;79.36;98130.22;1751954;80;21401;-60
2021/12/20 09:27:22;;;;;;;0.70;0.40;;;;;;;1.59;79.27;98123.94;1753353;80;21776;-59
2021/12/20 09:29:48;;;;;;;0.73;0.50;;;;;;;1.61;79.23;98116.80;1750121;80;21252;-59
2021/12/20 09:32:16;;;;;;;0.60;0.40;;;;;;;1.63;79.09;98125.54;1752466;80;21417;-59
2021/12/20 09:34:42;;;;;;;0.87;0.50;;;;;;;1.66;78.93;98123.24;1749448;80;20911;-60
2021/12/20 09:37:09;;;;;;;1.17;0.60;;;;;;;1.68;78.83;98126.70;1748843;80;20916;-59
2021/12/20 09:39:38;;;;;;;0.83;0.30;;;;;;;1.69;78.62;98121.81;1753495;80;20887;-60
2021/12/20 09:42:05;;;;;;;2.57;0.50;;;;;;;1.72;78.56;98125.65;1752443;80;20947;-60
2021/12/20 09:44:32;;;;;;;1.57;0.53;;;;;;;1.76;78.57;98120.18;1750796;80;21140;-60
2021/12/20 09:47:01;;;;;;;1.83;0.60;;;;;;;1.78;78.45;98121.45;1755530;80;20911;-59
2021/12/20 09:49:28;;;;;;;2.10;0.70;;;;;;;1.81;78.28;98124.83;1716302;82;21549;-59
2021/12/20 09:51:57;;;;;;;1.70;0.60;;;;;;;1.85;78.17;98117.63;1705951;82;21437;-59
2021/12/20 09:54:25;;;;;;;2.07;0.60;;;;;;;1.91;78.16;98121.36;1678580;83;21091;-59
2021/12/20 09:56:53;;;;;;;2.60;0.60;;;;;;;1.99;78.26;98126.36;1682887;83;21468;-58
2021/12/20 09:59:20;;;;;;;0.70;0.50;;;;;;;2.06;78.08;98126.52;1714014;82;20959;-59
2021/12/20 10:01:46;;;;;;;0.93;0.50;;;;;;;2.13;77.86;98118.24;1677776;83;21071;-58
2021/12/20 10:04:13;;;;;;;0.80;0.50;;;;;;;2.21;77.80;98115.30;1711677;82;21061;-59
2021/12/20 10:06:40;;;;;;;1.80;1.20;;;;;;;2.32;77.76;98120.16;1678916;83;21049;-59
2021/12/20 10:09:17;;;;;;;1.10;0.57;;;;;;;2.42;77.37;98116.20;1711123;82;21130;-58
2021/12/20 10:11:43;;;;;;;0.70;0.40;;;;;;;2.47;76.91;98111.08;1677121;83;21077;-58
2021/12/20 10:14:13;;;;;;;1.17;0.50;;;;;;;2.51;76.81;98119.80;1680703;83;21102;-58
2021/12/20 10:16:41;;;;;;;1.00;0.40;;;;;;;2.52;76.84;98116.22;1740027;81;21295;-59
2021/12/20 10:19:28;;;;;;;1.07;0.30;;;;;;;2.56;76.62;98116.48;1738260;81;21453;-58
2021/12/20 10:21:56;;;;;;;0.37;0.20;;;;;;;2.61;76.55;98122.48;1728987;81;21157;-59
2021/12/20 10:24:34;;;;;;;0.43;0.27;;;;;;;2.63;76.07;98121.50;1736901;80;21047;-59
2021/12/20 10:27:00;;;;;;;0.80;0.20;;;;;;;2.67;76.01;98118.23;1737861;80;20999;-59
2021/12/20 10:29:26;;;;;;;0.70;0.30;;;;;;;2.73;75.51;98114.44;1739241;81;21051;-59
2021/12/20 10:31:53;;;;;;;0.57;0.20;;;;;;;2.70;75.52;98115.91;1733413;80;21078;-59
2021/12/20 10:34:31;;;;;;;0.70;0.30;;;;;;;2.67;75.39;98123.53;1735911;80;21528;-59
2021/12/20 10:36:59;;;;;;;0.30;0.20;;;;;;;2.59;74.96;98117.22;1737994;80;21122;-58
2021/12/20 10:39:38;;;;;;;0.20;0.20;;;;;;;2.52;74.89;98117.09;1735668;81;21068;-58
2021/12/20 10:42:29;;;;;;;0.77;0.20;;;;;;;2.48;74.98;98115.93;1736153;80;21127;-59
2021/12/20 10:45:14;;;;;;;0.33;0.27;;;;;;;2.42;74.96;98122.38;1730554;80;21064;-58
2021/12/20 10:47:42;;;;;;;0.60;0.20;;;;;;;2.38;75.09;98122.12;1740505;80;21088;-58
2021/12/20 10:50:25;;;;;;;0.60;0.27;;;;;;;2.33;75.42;98120.09;1736301;80;21362;-58
2021/12/20 10:52:53;;;;;;;0.43;0.30;;;;;;;2.29;75.63;98122.50;1739082;80;21081;-59
2021/12/20 10:55:43;;;;;;;0.37;0.20;;;;;;;2.20;75.98;98120.21;1742593;81;21083;-59
2021/12/20 10:58:29;;;;;;;0.77;0.20;;;;;;;2.15;76.30;98124.36;1732905;80;21070;-58
2021/12/20 11:01:22;;;;;;;0.40;0.20;;;;;;;2.14;76.62;98123.09;1738065;80;22245;-58
2021/12/20 11:03:46;;;;;;;0.20;0.20;;;;;;;2.11;76.69;98124.56;1721787;80;21079;-58
2021/12/20 11:11:30;;;;;;;0.40;0.30;;;;;;;2.10;77.06;98134.77;1734817;80;21040;-58
2021/12/20 11:13:59;;;;;;;0.50;0.30;;;;;;;2.12;77.07;98124.51;1733692;80;22191;-58
2021/12/20 11:16:32;;;;;;;0.50;0.33;;;;;;;2.11;76.96;98129.41;1753939;80;21027;-58
2021/12/20 11:19:21;;;;;;;0.70;0.37;;;;;;;2.13;76.84;98135.95;1744751;80;21035;-58
2021/12/20 11:21:51;;;;;;;2.30;0.50;;;;;;;2.13;76.78;98140.80;1749638;80;21042;-59
2021/12/20 11:24:29;;;;;;;0.70;0.33;;;;;;;2.16;76.94;98134.06;1749135;80;21050;-59
2021/12/20 11:26:55;;;;;;;0.50;0.30;;;;;;;2.21;76.92;98136.05;1749587;80;21888;-59
2021/12/20 11:29:22;;;;;;;0.67;0.30;;;;;;;2.24;76.93;98134.61;1747937;80;22321;-58
2021/12/20 11:31:49;;;;;;;0.40;0.40;;;;;;;2.27;76.76;98145.12;1746653;80;21086;-59
2021/12/20 11:34:15;;;;;;;0.40;0.30;;;;;;;2.28;77.01;98140.22;1749471;80;21045;-59
2021/12/20 11:36:42;;;;;;;0.47;0.30;;;;;;;2.32;77.10;98146.24;1743023;80;21085;-58
2021/12/20 11:39:08;;;;;;;0.50;0.30;;;;;;;2.37;77.16;98142.95;1754304;80;21450;-58
2021/12/20 11:41:35;;;;;;;0.37;0.30;;;;;;;2.40;77.21;98146.80;1750387;80;20935;-58
2021/12/20 11:44:03;;;;;;;1.47;0.40;;;;;;;2.42;76.91;98147.61;1749150;80;21409;-58
2021/12/20 11:46:36;;;;;;;0.43;0.30;;;;;;;2.40;76.78;98148.58;1726348;80;21051;-57
2021/12/20 11:49:02;;;;;;;1.27;0.30;;;;;;;2.40;76.42;98149.91;1749927;80;21034;-58
2021/12/20 11:51:28;;;;;;;0.50;0.33;;;;;;;2.39;76.33;98149.05;1747833;80;21101;-58
2021/12/20 11:53:55;;;;;;;0.60;0.40;;;;;;;2.40;76.05;98152.56;1750208;80;21051;-58
2021/12/20 11:56:37;;;;;;;0.80;0.40;;;;;;;2.35;75.84;98162.52;1751747;80;21125;-57
2021/12/20 11:59:04;;;;;;;0.43;0.23;;;;;;;2.28;75.99;98158.80;1748284;80;21038;-57
2021/12/20 12:01:31;;;;;;;0.40;0.20;;;;;;;2.25;75.89;98162.02;1745973;80;21089;-59